Time;durP1;ratioP1;P1;durP2;ratioP2;P2;SDS_P1;SDS_P2;PMS_P1;PMS_P2;Temp;Humidity;BMP_temperature;BMP_pressure;BME280_temperature;BME280_humidity;BME280_pressure;Samples;Min_cycle;Max_cycle;Signal;HPM_P1;HPM_P2
2021/03/16 00:00:26;;;;;;;;;;;;;;;1.02;100.00;95664.88;1039574;28;20382;-69
2021/03/16 00:00:56;;;;;;;;;;;;;;;1.02;100.00;95662.28;1039656;28;19917;-68
2021/03/16 00:01:26;;;;;;;;;;;;;;;1.04;100.00;95664.66;1039799;28;20003;-70
2021/03/16 00:01:57;;;;;;;;;;;;;;;1.04;100.00;95662.88;1043497;28;19921;-68
2021/03/16 00:02:27;;;;;;;;;;;;;;;1.04;100.00;95665.47;1043975;28;19978;-69
2021/03/16 00:02:57;;;;;;;;;;;;;;;1.04;100.00;95664.66;1035479;28;19991;-71
2021/03/16 00:03:27;;;;;;;;;;;;;;;1.07;100.00;95665.03;1035233;28;20008;-69
2021/03/16 00:03:58;;;;;;;;;;;;;;;1.05;100.00;95663.69;1027498;28;20438;-68
2021/03/16 00:04:28;;;;;;;;;;;;;;;1.06;100.00;95666.03;1031752;28;19918;-69
2021/03/16 00:04:58;;;;;;;;;;;;;;;1.05;100.00;95664.47;1035866;28;19949;-70
2021/03/16 00:05:29;;;;;;;;;;;;;;;1.03;100.00;95669.03;1030574;28;20321;-69
2021/03/16 00:05:59;;;;;;;;;;;;;;;1.06;100.00;95668.63;1043738;28;19924;-69
2021/03/16 00:06:30;;;;;;;;;;;;;;;1.07;100.00;95666.84;1035805;28;19996;-70
2021/03/16 00:07:03;;;;;;;;;;;;;;;1.08;100.00;95666.66;1032589;28;19917;-70
2021/03/16 00:07:33;;;;;;;;;;;;;;;1.08;100.00;95665.84;1039712;28;19913;-70
2021/03/16 00:08:04;;;;;;;;;;;;;;;1.08;100.00;95668.44;1040285;28;19909;-69
2021/03/16 00:08:34;;;;;;;;;;;;;;;1.08;100.00;95661.47;1043555;28;19932;-69
2021/03/16 00:09:05;;;;;;;;;;;;;;;1.08;100.00;95671.81;1031767;28;20053;-69
2021/03/16 00:09:35;;;;;;;;;;;;;;;1.09;100.00;95667.44;1031553;28;19999;-69
2021/03/16 00:10:06;;;;;;;;;;;;;;;1.02;100.00;95664.88;1035801;28;19996;-70
2021/03/16 00:10:36;;;;;;;;;;;;;;;1.11;100.00;95665.44;1034193;28;19917;-69
2021/03/16 00:11:06;;;;;;;;;;;;;;;1.12;100.00;95667.81;1043915;28;19920;-69
2021/03/16 00:11:36;;;;;;;;;;;;;;;1.11;100.00;95671.41;1035491;28;19917;-70
2021/03/16 00:12:07;;;;;;;;;;;;;;;1.11;100.00;95671.41;1036261;28;20391;-66
2021/03/16 00:12:37;;;;;;;;;;;;;;;1.11;100.00;95671.41;1043915;28;19917;-70
2021/03/16 00:13:08;;;;;;;;;;;;;;;1.13;100.00;95673.78;1035906;28;19952;-70
2021/03/16 00:13:38;;;;;;;;;;;;;;;1.09;100.00;95673.38;1039546;28;19913;-69
2021/03/16 00:14:08;;;;;;;;;;;;;;;1.09;100.00;95673.38;1035418;28;19921;-70
2021/03/16 00:14:38;;;;;;;;;;;;;;;1.11;100.00;95671.41;1031650;28;20403;-70
2021/03/16 00:15:09;;;;;;;;;;;;;;;1.10;100.00;95674.19;1039834;28;19963;-69
2021/03/16 00:15:39;;;;;;;;;;;;;;;1.10;100.00;95669.78;1038372;28;20338;-68
2021/03/16 00:16:10;;;;;;;;;;;;;;;1.09;100.00;95675.97;1039500;28;19916;-70
2021/03/16 00:16:40;;;;;;;;;;;;;;;1.09;100.00;95673.38;1039723;28;19924;-69
2021/03/16 00:17:10;;;;;;;;;;;;;;;1.10;100.00;95674.19;1039669;28;20448;-70
2021/03/16 00:17:41;;;;;;;;;;;;;;;1.08;100.00;95676.19;1039475;28;19917;-69
2021/03/16 00:18:15;;;;;;;;;;;;;;;1.10;100.00;95676.75;1043948;28;20309;-68
2021/03/16 00:18:46;;;;;;;;;;;;;;;1.09;100.00;95673.38;1039670;28;20426;-70
2021/03/16 00:19:16;;;;;;;;;;;;;;;1.09;100.00;95673.38;1036079;28;19924;-68
2021/03/16 00:19:47;;;;;;;;;;;;;;;1.08;100.00;95681.34;1035474;28;19925;-70
2021/03/16 00:20:17;;;;;;;;;;;;;;;1.10;100.00;95679.34;1027369;28;19915;-69
2021/03/16 00:20:48;;;;;;;;;;;;;;;1.08;100.00;95687.31;1031471;28;19938;-69
2021/03/16 00:21:18;;;;;;;;;;;;;;;1.08;100.00;95682.16;1031454;28;19917;-69
2021/03/16 00:21:48;;;;;;;;;;;;;;;1.09;100.00;95683.72;1031375;28;19918;-68
2021/03/16 00:22:18;;;;;;;;;;;;;;;1.08;100.00;95682.16;1035127;28;19940;-68
2021/03/16 00:22:49;;;;;;;;;;;;;;;1.09;100.00;95681.13;1035653;28;19917;-68
2021/03/16 00:23:19;;;;;;;;;;;;;;;1.09;100.00;95683.72;1039525;28;19917;-69
2021/03/16 00:23:49;;;;;;;;;;;;;;;1.09;100.00;95683.72;1043628;28;20339;-68
2021/03/16 00:24:20;;;;;;;;;;;;;;;1.12;100.00;95685.91;1043289;28;19916;-69
2021/03/16 00:24:50;;;;;;;;;;;;;;;1.10;100.00;95680.13;1039664;28;19960;-68
2021/03/16 00:25:20;;;;;;;;;;;;;;;1.09;100.00;95678.56;1039498;28;19913;-68
2021/03/16 00:25:51;;;;;;;;;;;;;;;1.08;100.00;95676.97;1040589;28;19914;-68
2021/03/16 00:26:21;;;;;;;;;;;;;;;1.08;100.00;95689.91;1035366;28;19909;-69
2021/03/16 00:26:51;;;;;;;;;;;;;;;1.08;100.00;95681.34;1039666;28;19947;-69
2021/03/16 00:27:21;;;;;;;;;;;;;;;1.08;100.00;95682.16;1039728;28;19913;-68
2021/03/16 00:27:52;;;;;;;;;;;;;;;1.06;100.00;95686.72;1039720;28;19914;-70
2021/03/16 00:28:22;;;;;;;;;;;;;;;1.08;100.00;95681.34;1043577;28;19953;-68
2021/03/16 00:28:52;;;;;;;;;;;;;;;1.08;100.00;95682.16;1035548;28;20333;-68
2021/03/16 00:29:23;;;;;;;;;;;;;;;1.07;100.00;95680.53;1030585;28;20564;-70
2021/03/16 00:29:53;;;;;;;;;;;;;;;1.09;100.00;95688.09;1031356;28;19917;-70
2021/03/16 00:30:23;;;;;;;;;;;;;;;1.08;100.00;95689.91;1031590;28;19982;-69
2021/03/16 00:30:54;;;;;;;;;;;;;;;1.09;100.00;95682.94;1036153;28;19912;-68
2021/03/16 00:31:24;;;;;;;;;;;;;;;1.07;100.00;95685.69;1035706;28;19956;-71
2021/03/16 00:31:54;;;;;;;;;;;;;;;1.06;100.00;95689.28;1039628;28;19920;-70
2021/03/16 00:32:27;;;;;;;;;;;;;;;1.04;100.00;95691.31;1035324;28;19976;-67
2021/03/16 00:32:58;;;;;;;;;;;;;;;1.04;100.00;95690.50;1039397;28;19939;-70
2021/03/16 00:33:28;;;;;;;;;;;;;;;1.03;100.00;95694.88;1043887;28;20011;-70
2021/03/16 00:33:58;;;;;;;;;;;;;;;1.04;100.00;95690.50;1035685;28;19914;-68
2021/03/16 00:34:28;;;;;;;;;;;;;;;1.06;100.00;95691.09;1035130;28;19913;-70
2021/03/16 00:34:59;;;;;;;;;;;;;;;1.04;100.00;95690.50;1035590;28;19914;-68
2021/03/16 00:35:29;;;;;;;;;;;;;;;1.03;100.00;95694.06;1035037;28;20370;-69
2021/03/16 00:35:59;;;;;;;;;;;;;;;1.04;100.00;95693.06;1039132;28;19948;-70
2021/03/16 00:36:30;;;;;;;;;;;;;;;1.06;100.00;95689.28;1039408;28;19909;-68
2021/03/16 00:37:00;;;;;;;;;;;;;;;1.05;100.00;95695.47;1035476;28;19914;-68
2021/03/16 00:37:30;;;;;;;;;;;;;;;1.05;100.00;95695.47;1031597;28;19909;-69
2021/03/16 00:38:00;;;;;;;;;;;;;;;1.06;100.00;95702.22;1031046;28;19910;-70
2021/03/16 00:38:31;;;;;;;;;;;;;;;1.06;100.00;95698.84;1035392;28;19906;-69
2021/03/16 00:39:01;;;;;;;;;;;;;;;1.06;100.00;95693.69;1035545;28;19948;-69
2021/03/16 00:39:32;;;;;;;;;;;;;;;1.07;100.00;95698.63;1035462;28;20580;-70
2021/03/16 00:40:03;;;;;;;;;;;;;;;1.07;100.00;95701.22;1031435;28;19933;-68
2021/03/16 00:40:33;;;;;;;;;;;;;;;1.06;100.00;95694.47;1031331;28;20165;-70
2021/03/16 00:41:03;;;;;;;;;;;;;;;1.08;100.00;95699.44;1035233;28;19921;-69
2021/03/16 00:41:34;;;;;;;;;;;;;;;1.09;100.00;95699.22;1035339;28;19909;-70
2021/03/16 00:42:04;;;;;;;;;;;;;;;1.10;100.00;95698.22;1035460;28;19916;-68
2021/03/16 00:42:35;;;;;;;;;;;;;;;1.10;100.00;95694.84;1039435;28;19917;-69
2021/03/16 00:43:05;;;;;;;;;;;;;;;1.09;100.00;95698.44;1038698;28;19921;-70
2021/03/16 00:43:35;;;;;;;;;;;;;;;1.08;100.00;95692.47;1035366;28;19920;-72
2021/03/16 00:44:06;;;;;;;;;;;;;;;1.08;100.00;95702.81;1031411;28;20004;-70
2021/03/16 00:44:36;;;;;;;;;;;;;;;1.08;100.00;95694.28;1033369;28;19913;-67
2021/03/16 00:45:07;;;;;;;;;;;;;;;1.08;100.00;95696.84;1035515;28;19914;-69
2021/03/16 00:45:37;;;;;;;;;;;;;;;1.07;100.00;95700.41;1039063;28;19947;-70
2021/03/16 00:46:07;;;;;;;;;;;;;;;1.08;100.00;95695.06;1043430;28;19921;-69
2021/03/16 00:46:37;;;;;;;;;;;;;;;1.07;100.00;95711.53;1043421;28;19924;-70
2021/03/16 00:47:08;;;;;;;;;;;;;;;1.07;100.00;95706.38;1039618;28;19913;-69
2021/03/16 00:47:38;;;;;;;;;;;;;;;1.09;100.00;95701.81;1043550;28;19917;-69
2021/03/16 00:48:13;;;;;;;;;;;;;;;1.09;100.00;95701.81;1037699;28;20161;-71
2021/03/16 00:48:44;;;;;;;;;;;;;;;1.11;100.00;95699.03;1036288;28;20353;-69
2021/03/16 00:49:14;;;;;;;;;;;;;;;1.08;100.00;95707.19;1039407;28;19944;-68
2021/03/16 00:49:44;;;;;;;;;;;;;;;1.09;100.00;95708.78;1038072;28;19941;-68
2021/03/16 00:50:15;;;;;;;;;;;;;;;1.07;100.00;95706.38;1043624;28;19984;-69
2021/03/16 00:50:45;;;;;;;;;;;;;;;1.06;100.00;95698.84;1043755;28;20019;-70
2021/03/16 00:51:15;;;;;;;;;;;;;;;1.06;100.00;95704.00;1043352;28;20483;-70
2021/03/16 00:51:46;;;;;;;;;;;;;;;1.06;100.00;95697.03;1039186;28;19921;-69
2021/03/16 00:52:16;;;;;;;;;;;;;;;1.07;100.00;95705.59;1043542;28;19932;-68
2021/03/16 00:52:46;;;;;;;;;;;;;;;1.05;100.00;95705.00;1039578;28;19921;-69
2021/03/16 00:53:17;;;;;;;;;;;;;;;1.06;100.00;95704.78;1030771;28;19968;-70
2021/03/16 00:53:47;;;;;;;;;;;;;;;1.06;100.00;95694.47;1031308;28;19922;-68
2021/03/16 00:54:17;;;;;;;;;;;;;;;1.06;100.00;95699.63;1031268;28;19975;-70
2021/03/16 00:54:47;;;;;;;;;;;;;;;1.05;100.00;95705.81;1031348;28;19972;-68
2021/03/16 00:55:18;;;;;;;;;;;;;;;1.05;100.00;95703.22;1035248;28;20354;-69
2021/03/16 00:55:48;;;;;;;;;;;;;;;1.05;100.00;95705.00;1037213;28;19917;-67
2021/03/16 00:56:19;;;;;;;;;;;;;;;1.05;100.00;95707.59;1039136;28;20373;-69
2021/03/16 00:56:49;;;;;;;;;;;;;;;1.04;100.00;95709.38;1035527;28;20496;-69
2021/03/16 00:57:19;;;;;;;;;;;;;;;1.04;100.00;95708.56;1036445;28;19918;-68
2021/03/16 00:57:49;;;;;;;;;;;;;;;1.05;100.00;95703.22;1035679;28;19913;-68
2021/03/16 00:58:26;;;;;;;;;;;;;;;1.04;100.00;95708.56;1028548;28;19976;-68
2021/03/16 00:58:56;;;;;;;;;;;;;;;1.06;100.00;95715.13;1028686;28;19953;-68
2021/03/16 00:59:27;;;;;;;;;;;;;;;1.07;100.00;95708.97;1032371;28;19917;-68
2021/03/16 00:59:57;;;;;;;;;;;;;;;0.87;100.00;95678.03;1036308;28;19921;-69
2021/03/16 01:00:28;;;;;;;;;;;;;;;1.09;100.00;95711.34;1039606;28;19925;-68
2021/03/16 01:00:58;;;;;;;;;;;;;;;0.88;100.00;95681.41;1039421;28;20263;-68
2021/03/16 01:01:28;;;;;;;;;;;;;;;1.07;100.00;95711.53;1043492;28;19954;-69
2021/03/16 01:01:59;;;;;;;;;;;;;;;1.06;100.00;95715.13;1035351;28;19921;-71
2021/03/16 01:02:29;;;;;;;;;;;;;;;1.06;100.00;95707.38;1030887;28;19971;-70
2021/03/16 01:02:59;;;;;;;;;;;;;;;1.10;100.00;95716.31;1031253;28;19922;-70
2021/03/16 01:03:29;;;;;;;;;;;;;;;1.10;100.00;95713.72;1031000;28;20709;-70
2021/03/16 01:04:00;;;;;;;;;;;;;;;1.11;100.00;95714.53;1035585;28;19921;-68
2021/03/16 01:04:30;;;;;;;;;;;;;;;1.10;100.00;95711.13;1039541;28;19944;-70
2021/03/16 01:05:00;;;;;;;;;;;;;;;1.09;100.00;95709.56;1039387;28;20073;-69
2021/03/16 01:05:31;;;;;;;;;;;;;;;1.09;100.00;95714.72;1030686;28;19930;-68
2021/03/16 01:06:02;;;;;;;;;;;;;;;1.11;100.00;95712.75;1030620;28;20554;-69
2021/03/16 01:06:32;;;;;;;;;;;;;;;1.11;100.00;95714.53;1035362;28;20432;-69
2021/03/16 01:07:02;;;;;;;;;;;;;;;1.10;100.00;95713.72;1039707;28;19936;-68
2021/03/16 01:07:33;;;;;;;;;;;;;;;1.09;100.00;95719.91;1042941;28;19917;-71
2021/03/16 01:08:03;;;;;;;;;;;;;;;1.08;100.00;95718.31;1039310;28;19921;-71
2021/03/16 01:08:34;;;;;;;;;;;;;;;1.08;100.00;95707.97;1036436;28;19921;-68
2021/03/16 01:09:04;;;;;;;;;;;;;;;1.08;100.00;95713.16;1034381;28;19924;-68
2021/03/16 01:09:34;;;;;;;;;;;;;;;1.09;100.00;95711.34;1025935;28;19918;-68
2021/03/16 01:10:09;;;;;;;;;;;;;;;1.06;100.00;95717.72;1026929;28;19922;-68
2021/03/16 01:10:40;;;;;;;;;;;;;;;1.07;100.00;95715.91;1029198;28;19965;-69
2021/03/16 01:11:10;;;;;;;;;;;;;;;1.10;100.00;95718.09;1029448;28;20276;-69
2021/03/16 01:11:40;;;;;;;;;;;;;;;1.08;100.00;95715.72;1037817;28;19917;-69
2021/03/16 01:12:10;;;;;;;;;;;;;;;1.07;100.00;95716.72;1039432;28;19987;-69
2021/03/16 01:12:41;;;;;;;;;;;;;;;1.07;100.00;95716.72;1039468;28;20326;-68
2021/03/16 01:13:12;;;;;;;;;;;;;;;1.07;100.00;95716.72;1038952;28;19917;-70
2021/03/16 01:13:42;;;;;;;;;;;;;;;1.08;100.00;95720.09;1040320;28;20036;-68
2021/03/16 01:14:12;;;;;;;;;;;;;;;1.05;100.00;95713.56;1043615;28;20332;-70
2021/03/16 01:14:43;;;;;;;;;;;;;;;1.04;100.00;95711.97;1039496;28;20371;-68
2021/03/16 01:15:13;;;;;;;;;;;;;;;1.04;100.00;95722.31;1043557;28;19968;-70
2021/03/16 01:15:44;;;;;;;;;;;;;;;1.02;100.00;95719.13;1038339;28;20012;-69
2021/03/16 01:16:14;;;;;;;;;;;;;;;1.02;100.00;95719.13;1039111;28;20365;-69
2021/03/16 01:16:44;;;;;;;;;;;;;;;1.03;100.00;95723.28;1039479;28;19913;-69
2021/03/16 01:17:14;;;;;;;;;;;;;;;1.02;100.00;95721.72;1034866;28;19939;-68
2021/03/16 01:17:45;;;;;;;;;;;;;;;1.02;100.00;95726.88;1039495;28;19923;-68
2021/03/16 01:18:15;;;;;;;;;;;;;;;1.02;100.00;95718.34;1035494;28;19921;-70
2021/03/16 01:18:45;;;;;;;;;;;;;;;1.01;100.00;95727.09;1035415;28;19918;-70
2021/03/16 01:19:16;;;;;;;;;;;;;;;1.01;100.00;95722.72;1039295;28;19920;-69
2021/03/16 01:19:46;;;;;;;;;;;;;;;1.03;100.00;95715.53;1041647;28;19917;-68
2021/03/16 01:20:18;;;;;;;;;;;;;;;1.02;100.00;95718.34;1039013;28;19917;-69
2021/03/16 01:20:48;;;;;;;;;;;;;;;1.03;100.00;95720.69;1035748;28;19969;-68
2021/03/16 01:21:18;;;;;;;;;;;;;;;1.04;100.00;95721.50;1038366;28;19972;-70
2021/03/16 01:21:48;;;;;;;;;;;;;;;1.04;100.00;95716.31;1035458;28;19922;-69
2021/03/16 01:22:21;;;;;;;;;;;;;;;1.05;100.00;95720.50;1035415;28;19922;-69
2021/03/16 01:22:51;;;;;;;;;;;;;;;1.04;100.00;95721.50;1039462;28;20493;-69
2021/03/16 01:23:22;;;;;;;;;;;;;;;1.04;100.00;95713.75;1042185;28;19928;-69
2021/03/16 01:23:52;;;;;;;;;;;;;;;1.05;100.00;95721.31;1043576;28;19920;-69
2021/03/16 01:24:22;;;;;;;;;;;;;;;1.03;100.00;95715.53;1039142;28;19975;-69
2021/03/16 01:24:53;;;;;;;;;;;;;;;1.04;100.00;95722.31;1043289;28;19921;-70
2021/03/16 01:25:23;;;;;;;;;;;;;;;1.04;100.00;95722.31;1039286;28;20585;-69
2021/03/16 01:25:53;;;;;;;;;;;;;;;1.04;100.00;95718.91;1034607;28;19921;-69
2021/03/16 01:26:24;;;;;;;;;;;;;;;1.03;100.00;95720.69;1038722;28;20463;-71
2021/03/16 01:26:54;;;;;;;;;;;;;;;1.02;100.00;95724.28;1039469;28;19917;-70
2021/03/16 01:27:24;;;;;;;;;;;;;;;1.04;100.00;95724.06;1039383;28;19921;-70
2021/03/16 01:27:57;;;;;;;;;;;;;;;1.01;100.00;95719.34;1039370;28;19928;-68
2021/03/16 01:28:27;;;;;;;;;;;;;;;1.05;100.00;95729.06;1034767;28;20008;-69
2021/03/16 01:28:58;;;;;;;;;;;;;;;1.03;100.00;95722.50;1035536;28;19917;-69
2021/03/16 01:29:29;;;;;;;;;;;;;;;1.04;100.00;95729.25;1035847;28;20100;-68
2021/03/16 01:29:59;;;;;;;;;;;;;;;1.02;100.00;95723.50;1038949;28;19917;-69
2021/03/16 01:30:29;;;;;;;;;;;;;;;1.04;100.00;95722.31;1035352;28;19925;-68
2021/03/16 01:31:00;;;;;;;;;;;;;;;1.02;100.00;95723.50;1039389;28;19921;-68
2021/03/16 01:31:31;;;;;;;;;;;;;;;1.04;100.00;95724.06;1034354;28;19917;-69
2021/03/16 01:32:01;;;;;;;;;;;;;;;1.04;100.00;95722.31;1039404;28;19924;-69
2021/03/16 01:32:32;;;;;;;;;;;;;;;1.03;100.00;95725.88;1039267;28;20000;-69
2021/03/16 01:33:02;;;;;;;;;;;;;;;1.03;100.00;95719.91;1035398;28;19913;-70
2021/03/16 01:33:32;;;;;;;;;;;;;;;1.01;100.00;95727.09;1042875;28;19920;-69
2021/03/16 01:34:03;;;;;;;;;;;;;;;1.00;100.00;95723.69;1039231;28;19917;-69
2021/03/16 01:34:33;;;;;;;;;;;;;;;1.00;100.00;95723.69;1039211;28;19917;-72
2021/03/16 01:35:04;;;;;;;;;;;;;;;1.00;100.00;95723.69;1041626;28;19927;-68
2021/03/16 01:35:34;;;;;;;;;;;;;;;1.02;100.00;95724.28;1030540;28;20012;-69
2021/03/16 01:36:04;;;;;;;;;;;;;;;1.04;100.00;95727.47;1035267;28;19917;-72
2021/03/16 01:36:35;;;;;;;;;;;;;;;1.04;100.00;95727.47;1039196;28;20373;-70
2021/03/16 01:37:05;;;;;;;;;;;;;;;1.03;100.00;95728.44;1039081;28;19921;-69
2021/03/16 01:37:36;;;;;;;;;;;;;;;1.03;100.00;95732.84;1039210;28;20467;-69
2021/03/16 01:38:06;;;;;;;;;;;;;;;1.05;100.00;95728.25;1031194;28;19918;-71
2021/03/16 01:38:37;;;;;;;;;;;;;;;1.04;100.00;95737.81;1026525;28;19933;-69
2021/03/16 01:39:07;;;;;;;;;;;;;;;1.03;100.00;95731.03;1023389;28;19926;-68
2021/03/16 01:39:37;;;;;;;;;;;;;;;1.03;100.00;95731.03;1031258;28;19922;-70
2021/03/16 01:40:14;;;;;;;;;;;;;;;1.02;100.00;95737.22;1034985;28;19922;-70
2021/03/16 01:40:44;;;;;;;;;;;;;;;1.01;100.00;95738.22;1035923;28;19921;-69
2021/03/16 01:41:15;;;;;;;;;;;;;;;1.01;100.00;95738.22;1039201;28;19917;-69
2021/03/16 01:41:45;;;;;;;;;;;;;;;1.01;100.00;95733.03;1039793;28;19921;-69
2021/03/16 01:42:16;;;;;;;;;;;;;;;0.99;100.00;95735.03;1039165;28;19921;-69
2021/03/16 01:42:46;;;;;;;;;;;;;;;1.02;100.00;95739.00;1039345;28;20016;-69
2021/03/16 01:43:17;;;;;;;;;;;;;;;1.00;100.00;95735.81;1035185;28;19928;-71
2021/03/16 01:43:47;;;;;;;;;;;;;;;1.00;100.00;95730.66;1030529;28;20024;-70
2021/03/16 01:44:18;;;;;;;;;;;;;;;1.00;100.00;95736.59;1031600;28;19917;-69
2021/03/16 01:44:48;;;;;;;;;;;;;;;1.00;100.00;95739.19;1027358;28;19922;-69
2021/03/16 01:45:18;;;;;;;;;;;;;;;1.01;100.00;95737.41;1030637;28;19965;-71
2021/03/16 01:45:49;;;;;;;;;;;;;;;1.00;100.00;95735.81;1035366;28;20425;-70
2021/03/16 01:46:20;;;;;;;;;;;;;;;0.99;100.00;95734.25;1035319;28;20676;-71
2021/03/16 01:46:50;;;;;;;;;;;;;;;1.00;100.00;95739.19;1039298;28;19964;-70
2021/03/16 01:47:21;;;;;;;;;;;;;;;1.00;100.00;95736.59;1031957;28;19913;-70
2021/03/16 01:47:51;;;;;;;;;;;;;;;1.00;100.00;95739.19;1031340;28;19925;-70
2021/03/16 01:48:24;;;;;;;;;;;;;;;0.98;100.00;95738.63;1031581;28;19949;-71
2021/03/16 01:48:54;;;;;;;;;;;;;;;1.00;100.00;95741.78;1030861;28;19915;-70
2021/03/16 01:49:24;;;;;;;;;;;;;;;1.00;100.00;95740.97;1031561;28;19909;-69
2021/03/16 01:49:55;;;;;;;;;;;;;;;1.04;100.00;95735.22;1031759;28;20406;-69
2021/03/16 01:50:25;;;;;;;;;;;;;;;1.04;100.00;95730.06;1035022;28;19979;-71
2021/03/16 01:50:55;;;;;;;;;;;;;;;1.03;100.00;95731.03;1034926;28;19933;-69
2021/03/16 01:51:26;;;;;;;;;;;;;;;1.01;100.00;95743.38;1039607;28;20685;-69
2021/03/16 01:51:56;;;;;;;;;;;;;;;1.01;100.00;95733.03;1043376;28;20398;-70
2021/03/16 01:52:26;;;;;;;;;;;;;;;1.02;100.00;95739.78;1034884;28;20003;-69
2021/03/16 01:52:57;;;;;;;;;;;;;;;1.03;100.00;95738.78;1031031;28;19918;-70
2021/03/16 01:53:27;;;;;;;;;;;;;;;1.04;100.00;95737.81;1030938;28;20437;-69
2021/03/16 01:53:58;;;;;;;;;;;;;;;1.03;100.00;95736.19;1035394;28;19909;-70
2021/03/16 01:54:28;;;;;;;;;;;;;;;1.03;100.00;95740.56;1035303;28;20418;-70
2021/03/16 01:54:58;;;;;;;;;;;;;;;1.02;100.00;95739.78;1039292;28;20007;-70
2021/03/16 01:55:29;;;;;;;;;;;;;;;1.04;100.00;95744.75;1038648;28;19909;-71
2021/03/16 01:56:00;;;;;;;;;;;;;;;1.02;100.00;95741.59;1034814;28;19920;-69
2021/03/16 01:56:30;;;;;;;;;;;;;;;1.01;100.00;95733.03;1031397;28;19913;-69
2021/03/16 01:57:02;;;;;;;;;;;;;;;1.01;100.00;95740.78;1031247;28;19940;-69
2021/03/16 01:57:32;;;;;;;;;;;;;;;1.04;100.00;95739.56;1034217;28;19909;-71
2021/03/16 01:58:02;;;;;;;;;;;;;;;1.01;100.00;95740.78;1039612;28;20305;-71
2021/03/16 01:58:33;;;;;;;;;;;;;;;1.01;100.00;95740.78;1035156;28;19916;-70
2021/03/16 01:59:03;;;;;;;;;;;;;;;1.01;100.00;95740.78;1034765;28;19918;-70
2021/03/16 01:59:33;;;;;;;;;;;;;;;1.02;100.00;95744.16;1031018;28;19914;-71
2021/03/16 02:00:04;;;;;;;;;;;;;;;1.02;100.00;95736.41;1027188;28;19920;-70
2021/03/16 02:00:38;;;;;;;;;;;;;;;1.01;100.00;95745.19;1038807;28;20368;-68
2021/03/16 02:01:08;;;;;;;;;;;;;;;1.02;100.00;95737.22;1039778;28;19920;-69
2021/03/16 02:01:39;;;;;;;;;;;;;;;1.05;100.00;95744.56;1039070;28;20647;-69
2021/03/16 02:02:09;;;;;;;;;;;;;;;1.04;100.00;95737.81;1043310;28;19917;-70
2021/03/16 02:02:39;;;;;;;;;;;;;;;1.06;100.00;95737.59;1042337;28;19913;-72
2021/03/16 02:03:10;;;;;;;;;;;;;;;1.05;100.00;95738.59;1043469;28;20484;-69
2021/03/16 02:03:40;;;;;;;;;;;;;;;1.06;100.00;95738.38;1043090;28;19912;-71
2021/03/16 02:04:13;;;;;;;;;;;;;;;1.06;100.00;95740.19;1036380;28;19921;-70
2021/03/16 02:04:43;;;;;;;;;;;;;;;1.03;100.00;95738.78;1031192;28;20423;-69
2021/03/16 02:05:14;;;;;;;;;;;;;;;1.02;100.00;95739.00;1031579;28;19986;-69
2021/03/16 02:05:44;;;;;;;;;;;;;;;1.02;100.00;95744.16;1030297;28;19956;-68
2021/03/16 02:06:19;;;;;;;;;;;;;;;1.01;100.00;95743.38;1030726;28;19914;-68
2021/03/16 02:06:57;;;;;;;;;;;;;;;1.01;100.00;95745.97;1034608;28;19917;-71
2021/03/16 02:07:39;;;;;;;;;;;;;;;1.02;100.00;95749.34;1032414;28;20000;-69
2021/03/16 02:08:27;;;;;;;;;;;;;;;1.04;100.00;95748.16;1034225;28;19917;-69
2021/03/16 02:09:02;;;;;;;;;;;;;;;1.06;100.00;95746.13;1035160;28;19917;-71
2021/03/16 02:10:04;;;;;;;;;;;;;;;1.05;100.00;95744.56;1038714;28;19921;-69
2021/03/16 02:10:42;;;;;;;;;;;;;;;1.07;100.00;95742.53;1026587;28;19925;-69
2021/03/16 02:11:27;;;;;;;;;;;;;;;1.10;100.00;95746.53;1022734;28;20033;-70
2021/03/16 02:11:59;;;;;;;;;;;;;;;1.08;100.00;95739.00;1031024;28;19924;-69
2021/03/16 02:12:30;;;;;;;;;;;;;;;1.08;100.00;95739.00;1026879;28;19918;-69
2021/03/16 02:13:04;;;;;;;;;;;;;;;1.07;100.00;95739.97;1035594;28;19917;-70
2021/03/16 02:13:42;;;;;;;;;;;;;;;1.07;100.00;95739.16;1039084;28;19913;-68
2021/03/16 02:14:17;;;;;;;;;;;;;;;1.07;100.00;95745.13;1030813;28;19914;-72
2021/03/16 02:14:50;;;;;;;;;;;;;;;1.06;100.00;95746.13;1034954;28;19917;-69
2021/03/16 02:15:23;;;;;;;;;;;;;;;1.07;100.00;95741.75;1041769;28;19959;-69
2021/03/16 02:15:56;;;;;;;;;;;;;;;1.06;100.00;95746.13;1037669;28;19939;-68
2021/03/16 02:16:28;;;;;;;;;;;;;;;1.05;100.00;95749.72;1034366;28;19917;-69
2021/03/16 02:17:00;;;;;;;;;;;;;;;1.08;100.00;95751.91;1030901;28;19924;-69
2021/03/16 02:17:31;;;;;;;;;;;;;;;1.07;100.00;95749.50;1031071;28;19914;-69
2021/03/16 02:18:03;;;;;;;;;;;;;;;1.08;100.00;95749.31;1031206;28;20380;-70
2021/03/16 02:18:35;;;;;;;;;;;;;;;1.10;100.00;95746.53;1030868;28;19924;-70
2021/03/16 02:19:13;;;;;;;;;;;;;;;1.11;100.00;95748.13;1031639;28;19988;-71
2021/03/16 02:20:02;;;;;;;;;;;;;;;1.09;100.00;95740.56;1028398;28;19974;-69
2021/03/16 02:20:37;;;;;;;;;;;;;;;1.08;100.00;95749.31;1038297;28;20456;-69
2021/03/16 02:21:09;;;;;;;;;;;;;;;1.07;100.00;95746.94;1038894;28;20349;-68
2021/03/16 02:21:39;;;;;;;;;;;;;;;1.07;100.00;95752.88;1045959;28;19927;-69
2021/03/16 02:22:09;;;;;;;;;;;;;;;1.05;100.00;95744.56;1043431;28;19924;-67
2021/03/16 02:22:39;;;;;;;;;;;;;;;1.08;100.00;95749.31;1034832;28;20225;-69
2021/03/16 02:23:11;;;;;;;;;;;;;;;1.06;100.00;95742.75;1034816;28;20411;-69
2021/03/16 02:23:47;;;;;;;;;;;;;;;1.05;100.00;95749.72;1035128;28;19917;-70
2021/03/16 02:24:18;;;;;;;;;;;;;;;1.06;100.00;95751.31;1036807;28;19914;-68
2021/03/16 02:24:51;;;;;;;;;;;;;;;1.04;100.00;95747.31;1042857;28;19924;-69
2021/03/16 02:25:27;;;;;;;;;;;;;;;1.03;100.00;95743.94;1043238;28;19913;-69
2021/03/16 02:26:03;;;;;;;;;;;;;;;1.05;100.00;95743.78;1040115;28;20378;-70
2021/03/16 02:26:35;;;;;;;;;;;;;;;1.03;100.00;95741.38;1034673;28;20642;-69
2021/03/16 02:27:09;;;;;;;;;;;;;;;1.03;100.00;95748.34;1031003;28;19968;-70
2021/03/16 02:27:59;;;;;;;;;;;;;;;1.03;100.00;95750.91;1028578;28;19907;-69
2021/03/16 02:28:42;;;;;;;;;;;;;;;1.03;100.00;95756.88;1030191;28;19912;-69
2021/03/16 02:29:12;;;;;;;;;;;;;;;1.02;100.00;95760.47;1031323;28;19910;-69
2021/03/16 02:29:43;;;;;;;;;;;;;;;1.02;100.00;95757.09;1040657;28;20313;-69
2021/03/16 02:30:13;;;;;;;;;;;;;;;1.03;100.00;95751.69;1040863;28;19913;-70
2021/03/16 02:30:44;;;;;;;;;;;;;;;1.04;100.00;95748.16;1043215;28;19901;-71
2021/03/16 02:31:14;;;;;;;;;;;;;;;1.03;100.00;95751.69;1034333;28;19905;-68
2021/03/16 02:31:46;;;;;;;;;;;;;;;1.02;100.00;95752.72;1031116;28;19991;-71
2021/03/16 02:32:19;;;;;;;;;;;;;;;1.02;100.00;95746.75;1035003;28;19909;-69
2021/03/16 02:32:50;;;;;;;;;;;;;;;1.02;100.00;95757.09;1036329;28;20398;-69
2021/03/16 02:33:21;;;;;;;;;;;;;;;1.02;100.00;95755.28;1034575;28;19910;-69
2021/03/16 02:33:52;;;;;;;;;;;;;;;1.04;100.00;95752.50;1031033;28;19910;-70
2021/03/16 02:34:22;;;;;;;;;;;;;;;1.04;100.00;95753.31;1030985;28;19902;-71
2021/03/16 02:34:59;;;;;;;;;;;;;;;1.04;100.00;95752.50;1032152;28;20288;-70
2021/03/16 02:35:29;;;;;;;;;;;;;;;1.05;100.00;95754.09;1034414;28;19910;-68
2021/03/16 02:36:00;;;;;;;;;;;;;;;1.05;100.00;95754.88;1039887;28;20344;-69
2021/03/16 02:36:30;;;;;;;;;;;;;;;1.06;100.00;95755.69;1039818;28;20449;-70
2021/03/16 02:37:03;;;;;;;;;;;;;;;1.06;100.00;95759.06;1035046;28;19906;-70
2021/03/16 02:37:35;;;;;;;;;;;;;;;1.06;100.00;95755.69;1030730;28;19914;-70
2021/03/16 02:38:05;;;;;;;;;;;;;;;1.07;100.00;95752.88;1031724;28;19906;-69
2021/03/16 02:38:36;;;;;;;;;;;;;;;1.08;100.00;95751.91;1031203;28;20423;-70
2021/03/16 02:39:07;;;;;;;;;;;;;;;1.09;100.00;95760.44;1035365;28;20393;-70
2021/03/16 02:39:37;;;;;;;;;;;;;;;1.08;100.00;95757.06;1038945;28;19992;-69
2021/03/16 02:40:08;;;;;;;;;;;;;;;1.06;100.00;95751.31;1037190;28;20346;-69
2021/03/16 02:40:38;;;;;;;;;;;;;;;1.07;100.00;95758.06;1044778;28;19909;-69
2021/03/16 02:41:09;;;;;;;;;;;;;;;1.06;100.00;95755.69;1039296;28;19905;-68
2021/03/16 02:41:40;;;;;;;;;;;;;;;1.06;100.00;95753.88;1034159;28;20313;-68
2021/03/16 02:42:10;;;;;;;;;;;;;;;0.90;100.00;95725.91;1027179;28;19918;-69
2021/03/16 02:42:40;;;;;;;;;;;;;;;1.07;100.00;95752.88;1027121;28;19939;-69
2021/03/16 02:43:11;;;;;;;;;;;;;;;1.10;100.00;95756.84;1035222;28;19910;-71